sensor_id;sensor_type;location;lat;lon;timestamp;P1;durP1;ratioP1;P2;durP2;ratioP2
12407;SDS011;6268;48.188;17.134;2022-11-20T00:02:02;25.70;;;18.70;;
12407;SDS011;6268;48.188;17.134;2022-11-20T00:04:31;25.03;;;18.50;;
12407;SDS011;6268;48.188;17.134;2022-11-20T00:07:00;25.90;;;17.63;;
12407;SDS011;6268;48.188;17.134;2022-11-20T00:09:29;26.67;;;17.77;;
12407;SDS011;6268;48.188;17.134;2022-11-20T00:11:57;26.30;;;18.87;;
12407;SDS011;6268;48.188;17.134;2022-11-20T00:14:27;24.40;;;16.97;;
12407;SDS011;6268;48.188;17.134;2022-11-20T00:16:56;23.80;;;17.73;;
12407;SDS011;6268;48.188;17.134;2022-11-20T00:19:25;24.37;;;17.57;;
12407;SDS011;6268;48.188;17.134;2022-11-20T00:21:54;27.30;;;19.13;;
12407;SDS011;6268;48.188;17.134;2022-11-20T00:24:22;26.30;;;18.73;;
12407;SDS011;6268;48.188;17.134;2022-11-20T00:26:51;25.10;;;18.67;;
12407;SDS011;6268;48.188;17.134;2022-11-20T00:29:21;23.40;;;17.33;;
12407;SDS011;6268;48.188;17.134;2022-11-20T00:31:50;24.47;;;18.30;;
12407;SDS011;6268;48.188;17.134;2022-11-20T00:34:18;24.47;;;17.77;;
12407;SDS011;6268;48.188;17.134;2022-11-20T00:36:47;26.87;;;18.70;;
12407;SDS011;6268;48.188;17.134;2022-11-20T00:39:15;24.20;;;18.30;;
12407;SDS011;6268;48.188;17.134;2022-11-20T00:41:45;25.57;;;17.83;;
12407;SDS011;6268;48.188;17.134;2022-11-20T00:44:13;26.07;;;18.53;;
12407;SDS011;6268;48.188;17.134;2022-11-20T00:46:43;27.67;;;18.80;;
12407;SDS011;6268;48.188;17.134;2022-11-20T00:49:12;25.80;;;18.93;;
12407;SDS011;6268;48.188;17.134;2022-11-20T00:51:40;24.80;;;17.60;;
12407;SDS011;6268;48.188;17.134;2022-11-20T00:54:09;27.50;;;19.17;;
12407;SDS011;6268;48.188;17.134;2022-11-20T00:56:38;29.23;;;19.53;;
12407;SDS011;6268;48.188;17.134;2022-11-20T00:59:08;28.43;;;18.43;;
12407;SDS011;6268;48.188;17.134;2022-11-20T01:01:37;27.07;;;18.90;;
12407;SDS011;6268;48.188;17.134;2022-11-20T01:04:07;27.27;;;20.00;;
12407;SDS011;6268;48.188;17.134;2022-11-20T01:06:36;29.10;;;19.80;;
12407;SDS011;6268;48.188;17.134;2022-11-20T01:09:07;25.00;;;18.20;;
12407;SDS011;6268;48.188;17.134;2022-11-20T01:11:40;26.70;;;18.40;;
12407;SDS011;6268;48.188;17.134;2022-11-20T01:14:12;29.37;;;19.60;;
12407;SDS011;6268;48.188;17.134;2022-11-20T01:16:43;26.40;;;19.20;;
12407;SDS011;6268;48.188;17.134;2022-11-20T01:19:17;28.07;;;19.03;;
12407;SDS011;6268;48.188;17.134;2022-11-20T01:21:49;27.40;;;19.27;;
12407;SDS011;6268;48.188;17.134;2022-11-20T01:24:21;25.70;;;18.17;;
12407;SDS011;6268;48.188;17.134;2022-11-20T01:26:50;32.77;;;22.50;;
12407;SDS011;6268;48.188;17.134;2022-11-20T01:29:20;31.33;;;21.87;;
12407;SDS011;6268;48.188;17.134;2022-11-20T01:31:51;33.37;;;23.20;;
12407;SDS011;6268;48.188;17.134;2022-11-20T01:34:21;30.20;;;22.50;;
12407;SDS011;6268;48.188;17.134;2022-11-20T01:36:51;26.60;;;19.83;;
12407;SDS011;6268;48.188;17.134;2022-11-20T01:39:21;27.43;;;19.53;;
12407;SDS011;6268;48.188;17.134;2022-11-20T01:41:51;28.03;;;19.53;;
12407;SDS011;6268;48.188;17.134;2022-11-20T01:44:51;28.40;;;18.60;;
12407;SDS011;6268;48.188;17.134;2022-11-20T01:47:24;27.97;;;19.23;;
12407;SDS011;6268;48.188;17.134;2022-11-20T01:50:01;26.07;;;18.23;;
12407;SDS011;6268;48.188;17.134;2022-11-20T01:52:38;26.53;;;19.03;;
12407;SDS011;6268;48.188;17.134;2022-11-20T01:55:11;26.20;;;19.50;;
12407;SDS011;6268;48.188;17.134;2022-11-20T01:57:46;28.23;;;18.03;;
12407;SDS011;6268;48.188;17.134;2022-11-20T02:00:17;28.57;;;19.67;;
12407;SDS011;6268;48.188;17.134;2022-11-20T02:02:48;26.43;;;18.33;;
12407;SDS011;6268;48.188;17.134;2022-11-20T02:05:25;27.93;;;18.53;;
12407;SDS011;6268;48.188;17.134;2022-11-20T02:08:00;28.10;;;18.90;;
12407;SDS011;6268;48.188;17.134;2022-11-20T02:10:34;25.47;;;17.90;;
12407;SDS011;6268;48.188;17.134;2022-11-20T02:13:03;25.80;;;18.73;;
12407;SDS011;6268;48.188;17.134;2022-11-20T02:15:50;25.50;;;18.27;;
12407;SDS011;6268;48.188;17.134;2022-11-20T02:18:19;30.00;;;20.30;;
12407;SDS011;6268;48.188;17.134;2022-11-20T02:20:53;29.80;;;19.13;;
12407;SDS011;6268;48.188;17.134;2022-11-20T02:23:28;28.03;;;19.83;;
12407;SDS011;6268;48.188;17.134;2022-11-20T02:26:06;27.17;;;19.37;;
12407;SDS011;6268;48.188;17.134;2022-11-20T02:28:40;27.83;;;20.13;;
12407;SDS011;6268;48.188;17.134;2022-11-20T02:31:09;29.63;;;20.60;;
12407;SDS011;6268;48.188;17.134;2022-11-20T02:33:38;32.63;;;21.10;;
12407;SDS011;6268;48.188;17.134;2022-11-20T02:36:08;29.53;;;20.37;;
12407;SDS011;6268;48.188;17.134;2022-11-20T02:38:43;27.93;;;20.03;;
12407;SDS011;6268;48.188;17.134;2022-11-20T02:41:13;30.07;;;19.90;;
12407;SDS011;6268;48.188;17.134;2022-11-20T02:43:42;29.73;;;21.43;;
12407;SDS011;6268;48.188;17.134;2022-11-20T02:46:10;30.53;;;21.63;;
12407;SDS011;6268;48.188;17.134;2022-11-20T02:48:39;31.73;;;22.47;;
12407;SDS011;6268;48.188;17.134;2022-11-20T02:51:08;28.87;;;20.90;;
12407;SDS011;6268;48.188;17.134;2022-11-20T02:53:36;32.00;;;21.40;;
12407;SDS011;6268;48.188;17.134;2022-11-20T02:56:05;32.00;;;21.67;;
12407;SDS011;6268;48.188;17.134;2022-11-20T02:58:36;31.13;;;21.43;;
12407;SDS011;6268;48.188;17.134;2022-11-20T03:01:05;32.63;;;21.30;;
12407;SDS011;6268;48.188;17.134;2022-11-20T03:03:34;31.10;;;20.60;;
12407;SDS011;6268;48.188;17.134;2022-11-20T03:06:02;31.87;;;22.03;;
12407;SDS011;6268;48.188;17.134;2022-11-20T03:08:32;30.80;;;21.23;;
12407;SDS011;6268;48.188;17.134;2022-11-20T03:11:04;33.53;;;22.40;;
12407;SDS011;6268;48.188;17.134;2022-11-20T03:13:35;32.93;;;22.10;;
12407;SDS011;6268;48.188;17.134;2022-11-20T03:16:08;34.13;;;22.93;;
12407;SDS011;6268;48.188;17.134;2022-11-20T03:18:39;36.70;;;23.90;;
12407;SDS011;6268;48.188;17.134;2022-11-20T03:21:09;31.47;;;21.83;;
12407;SDS011;6268;48.188;17.134;2022-11-20T03:23:40;32.87;;;23.40;;
12407;SDS011;6268;48.188;17.134;2022-11-20T03:26:09;33.83;;;23.17;;
12407;SDS011;6268;48.188;17.134;2022-11-20T03:28:45;33.60;;;23.90;;
12407;SDS011;6268;48.188;17.134;2022-11-20T03:31:16;31.43;;;22.73;;
12407;SDS011;6268;48.188;17.134;2022-11-20T03:33:48;35.07;;;23.63;;
12407;SDS011;6268;48.188;17.134;2022-11-20T03:36:17;33.43;;;23.40;;
12407;SDS011;6268;48.188;17.134;2022-11-20T03:38:48;32.00;;;21.73;;
12407;SDS011;6268;48.188;17.134;2022-11-20T03:41:18;33.00;;;22.67;;
12407;SDS011;6268;48.188;17.134;2022-11-20T03:43:50;33.57;;;23.73;;
12407;SDS011;6268;48.188;17.134;2022-11-20T03:46:21;34.60;;;22.80;;
12407;SDS011;6268;48.188;17.134;2022-11-20T03:48:51;33.03;;;23.63;;
12407;SDS011;6268;48.188;17.134;2022-11-20T03:51:20;35.47;;;23.97;;
12407;SDS011;6268;48.188;17.134;2022-11-20T03:53:52;33.40;;;24.13;;
12407;SDS011;6268;48.188;17.134;2022-11-20T03:56:25;35.90;;;24.50;;
12407;SDS011;6268;48.188;17.134;2022-11-20T03:58:57;35.40;;;24.17;;
12407;SDS011;6268;48.188;17.134;2022-11-20T04:01:27;36.57;;;23.63;;
12407;SDS011;6268;48.188;17.134;2022-11-20T04:03:58;36.47;;;23.63;;
12407;SDS011;6268;48.188;17.134;2022-11-20T04:06:27;34.80;;;24.00;;
12407;SDS011;6268;48.188;17.134;2022-11-20T04:09:00;35.40;;;23.30;;
12407;SDS011;6268;48.188;17.134;2022-11-20T04:11:30;34.33;;;24.40;;
12407;SDS011;6268;48.188;17.134;2022-11-20T04:14:03;35.90;;;24.23;;
12407;SDS011;6268;48.188;17.134;2022-11-20T04:16:34;34.97;;;23.40;;
12407;SDS011;6268;48.188;17.134;2022-11-20T04:19:04;34.17;;;24.80;;
12407;SDS011;6268;48.188;17.134;2022-11-20T04:21:37;37.17;;;25.10;;
12407;SDS011;6268;48.188;17.134;2022-11-20T04:24:06;38.63;;;24.70;;
12407;SDS011;6268;48.188;17.134;2022-11-20T04:26:36;36.43;;;23.30;;
12407;SDS011;6268;48.188;17.134;2022-11-20T04:29:09;38.83;;;25.47;;
12407;SDS011;6268;48.188;17.134;2022-11-20T04:31:38;40.43;;;26.70;;
12407;SDS011;6268;48.188;17.134;2022-11-20T04:34:07;39.47;;;26.30;;
12407;SDS011;6268;48.188;17.134;2022-11-20T04:36:39;40.97;;;26.63;;
12407;SDS011;6268;48.188;17.134;2022-11-20T04:39:11;40.27;;;25.90;;
12407;SDS011;6268;48.188;17.134;2022-11-20T04:41:42;41.43;;;25.40;;
12407;SDS011;6268;48.188;17.134;2022-11-20T04:44:12;36.47;;;23.57;;
12407;SDS011;6268;48.188;17.134;2022-11-20T04:46:42;36.93;;;24.97;;
12407;SDS011;6268;48.188;17.134;2022-11-20T04:49:10;45.90;;;27.53;;
12407;SDS011;6268;48.188;17.134;2022-11-20T04:51:39;49.63;;;29.73;;
12407;SDS011;6268;48.188;17.134;2022-11-20T04:54:08;41.63;;;27.50;;
12407;SDS011;6268;48.188;17.134;2022-11-20T04:56:38;47.67;;;28.37;;
12407;SDS011;6268;48.188;17.134;2022-11-20T04:59:07;39.87;;;26.60;;
12407;SDS011;6268;48.188;17.134;2022-11-20T05:01:37;43.50;;;26.57;;
12407;SDS011;6268;48.188;17.134;2022-11-20T05:04:06;45.07;;;28.43;;
12407;SDS011;6268;48.188;17.134;2022-11-20T05:06:35;42.60;;;26.73;;
12407;SDS011;6268;48.188;17.134;2022-11-20T05:09:04;50.40;;;31.40;;
12407;SDS011;6268;48.188;17.134;2022-11-20T05:11:32;76.67;;;41.33;;
12407;SDS011;6268;48.188;17.134;2022-11-20T05:14:01;62.73;;;34.03;;
12407;SDS011;6268;48.188;17.134;2022-11-20T05:16:30;58.30;;;33.37;;
12407;SDS011;6268;48.188;17.134;2022-11-20T05:19:00;55.63;;;33.70;;
12407;SDS011;6268;48.188;17.134;2022-11-20T05:21:29;55.27;;;30.90;;
12407;SDS011;6268;48.188;17.134;2022-11-20T05:23:59;53.17;;;32.20;;
12407;SDS011;6268;48.188;17.134;2022-11-20T05:26:27;47.53;;;30.50;;
12407;SDS011;6268;48.188;17.134;2022-11-20T05:28:56;50.43;;;30.37;;
12407;SDS011;6268;48.188;17.134;2022-11-20T05:31:25;47.97;;;29.27;;
12407;SDS011;6268;48.188;17.134;2022-11-20T05:33:54;50.70;;;30.57;;
12407;SDS011;6268;48.188;17.134;2022-11-20T05:36:43;48.63;;;30.20;;
12407;SDS011;6268;48.188;17.134;2022-11-20T05:39:12;50.87;;;31.10;;
12407;SDS011;6268;48.188;17.134;2022-11-20T05:41:40;44.23;;;27.77;;
12407;SDS011;6268;48.188;17.134;2022-11-20T05:44:10;45.87;;;28.63;;
12407;SDS011;6268;48.188;17.134;2022-11-20T05:46:38;44.50;;;28.27;;
12407;SDS011;6268;48.188;17.134;2022-11-20T05:49:07;42.67;;;26.87;;
12407;SDS011;6268;48.188;17.134;2022-11-20T05:51:37;46.13;;;28.17;;
12407;SDS011;6268;48.188;17.134;2022-11-20T05:54:05;46.00;;;28.67;;
12407;SDS011;6268;48.188;17.134;2022-11-20T05:56:34;43.77;;;27.87;;
12407;SDS011;6268;48.188;17.134;2022-11-20T05:59:03;41.60;;;26.50;;
12407;SDS011;6268;48.188;17.134;2022-11-20T06:01:31;41.43;;;26.33;;
12407;SDS011;6268;48.188;17.134;2022-11-20T06:04:02;42.23;;;27.13;;
12407;SDS011;6268;48.188;17.134;2022-11-20T06:06:31;41.93;;;26.43;;
12407;SDS011;6268;48.188;17.134;2022-11-20T06:09:01;40.60;;;25.97;;
12407;SDS011;6268;48.188;17.134;2022-11-20T06:11:29;41.40;;;26.37;;
12407;SDS011;6268;48.188;17.134;2022-11-20T06:13:58;42.73;;;27.73;;
12407;SDS011;6268;48.188;17.134;2022-11-20T06:16:26;43.23;;;26.67;;
12407;SDS011;6268;48.188;17.134;2022-11-20T06:18:55;39.67;;;25.47;;
12407;SDS011;6268;48.188;17.134;2022-11-20T06:21:24;39.67;;;25.83;;
12407;SDS011;6268;48.188;17.134;2022-11-20T06:23:52;43.23;;;27.93;;
12407;SDS011;6268;48.188;17.134;2022-11-20T06:26:23;48.63;;;30.73;;
12407;SDS011;6268;48.188;17.134;2022-11-20T06:28:53;52.03;;;30.23;;
12407;SDS011;6268;48.188;17.134;2022-11-20T06:31:24;46.53;;;28.53;;
12407;SDS011;6268;48.188;17.134;2022-11-20T06:33:54;40.97;;;26.17;;
12407;SDS011;6268;48.188;17.134;2022-11-20T06:36:23;41.67;;;27.30;;
12407;SDS011;6268;48.188;17.134;2022-11-20T06:38:51;41.00;;;25.80;;
12407;SDS011;6268;48.188;17.134;2022-11-20T06:41:21;42.37;;;26.87;;
12407;SDS011;6268;48.188;17.134;2022-11-20T06:43:51;41.27;;;26.90;;
12407;SDS011;6268;48.188;17.134;2022-11-20T06:46:20;40.37;;;26.83;;
12407;SDS011;6268;48.188;17.134;2022-11-20T06:48:49;41.57;;;26.80;;
12407;SDS011;6268;48.188;17.134;2022-11-20T06:51:18;41.93;;;28.23;;
12407;SDS011;6268;48.188;17.134;2022-11-20T06:53:48;43.43;;;27.57;;
12407;SDS011;6268;48.188;17.134;2022-11-20T06:56:16;45.33;;;28.70;;
12407;SDS011;6268;48.188;17.134;2022-11-20T06:58:47;44.27;;;28.90;;
12407;SDS011;6268;48.188;17.134;2022-11-20T07:01:15;45.80;;;28.90;;
12407;SDS011;6268;48.188;17.134;2022-11-20T07:03:44;46.80;;;29.50;;
12407;SDS011;6268;48.188;17.134;2022-11-20T07:06:19;43.80;;;26.80;;
12407;SDS011;6268;48.188;17.134;2022-11-20T07:08:49;42.07;;;27.83;;
12407;SDS011;6268;48.188;17.134;2022-11-20T07:11:19;44.00;;;27.57;;
12407;SDS011;6268;48.188;17.134;2022-11-20T07:13:49;42.73;;;27.60;;
12407;SDS011;6268;48.188;17.134;2022-11-20T07:16:17;41.17;;;27.50;;
12407;SDS011;6268;48.188;17.134;2022-11-20T07:18:46;42.37;;;28.40;;
12407;SDS011;6268;48.188;17.134;2022-11-20T07:21:16;45.80;;;28.87;;
12407;SDS011;6268;48.188;17.134;2022-11-20T07:23:45;42.30;;;28.10;;
12407;SDS011;6268;48.188;17.134;2022-11-20T07:26:14;40.40;;;26.90;;
12407;SDS011;6268;48.188;17.134;2022-11-20T07:28:43;42.90;;;27.97;;
12407;SDS011;6268;48.188;17.134;2022-11-20T07:31:14;42.03;;;28.13;;
12407;SDS011;6268;48.188;17.134;2022-11-20T07:33:45;48.83;;;29.60;;
12407;SDS011;6268;48.188;17.134;2022-11-20T07:36:14;46.97;;;30.07;;
12407;SDS011;6268;48.188;17.134;2022-11-20T07:38:42;47.20;;;28.40;;
12407;SDS011;6268;48.188;17.134;2022-11-20T07:41:11;46.60;;;28.13;;
12407;SDS011;6268;48.188;17.134;2022-11-20T07:43:40;44.27;;;27.17;;
12407;SDS011;6268;48.188;17.134;2022-11-20T07:46:08;40.27;;;26.23;;
12407;SDS011;6268;48.188;17.134;2022-11-20T07:48:38;40.87;;;26.77;;
12407;SDS011;6268;48.188;17.134;2022-11-20T07:51:07;45.37;;;28.63;;
12407;SDS011;6268;48.188;17.134;2022-11-20T07:53:36;41.67;;;28.43;;
12407;SDS011;6268;48.188;17.134;2022-11-20T07:56:04;44.37;;;28.33;;
12407;SDS011;6268;48.188;17.134;2022-11-20T07:58:33;44.10;;;28.13;;
12407;SDS011;6268;48.188;17.134;2022-11-20T08:01:03;48.67;;;30.67;;
12407;SDS011;6268;48.188;17.134;2022-11-20T08:03:33;47.30;;;30.03;;
12407;SDS011;6268;48.188;17.134;2022-11-20T08:06:05;44.17;;;29.50;;
12407;SDS011;6268;48.188;17.134;2022-11-20T08:08:35;43.83;;;29.57;;
12407;SDS011;6268;48.188;17.134;2022-11-20T08:11:08;45.13;;;28.60;;
12407;SDS011;6268;48.188;17.134;2022-11-20T08:13:54;45.47;;;29.13;;
12407;SDS011;6268;48.188;17.134;2022-11-20T08:16:42;43.63;;;28.90;;
12407;SDS011;6268;48.188;17.134;2022-11-20T08:19:13;45.53;;;29.17;;
12407;SDS011;6268;48.188;17.134;2022-11-20T08:21:45;43.77;;;28.00;;
12407;SDS011;6268;48.188;17.134;2022-11-20T08:24:13;45.80;;;27.03;;
12407;SDS011;6268;48.188;17.134;2022-11-20T08:26:42;41.10;;;26.93;;
12407;SDS011;6268;48.188;17.134;2022-11-20T08:29:10;46.37;;;27.50;;
12407;SDS011;6268;48.188;17.134;2022-11-20T08:31:39;39.57;;;24.80;;
12407;SDS011;6268;48.188;17.134;2022-11-20T08:34:08;38.63;;;25.20;;
12407;SDS011;6268;48.188;17.134;2022-11-20T08:36:45;36.97;;;25.50;;
12407;SDS011;6268;48.188;17.134;2022-11-20T08:39:14;39.30;;;25.57;;
12407;SDS011;6268;48.188;17.134;2022-11-20T08:41:42;41.63;;;26.83;;
12407;SDS011;6268;48.188;17.134;2022-11-20T08:44:11;36.60;;;23.67;;
12407;SDS011;6268;48.188;17.134;2022-11-20T08:46:40;40.17;;;26.63;;
12407;SDS011;6268;48.188;17.134;2022-11-20T08:49:11;42.63;;;27.13;;
12407;SDS011;6268;48.188;17.134;2022-11-20T08:51:41;39.23;;;25.80;;
12407;SDS011;6268;48.188;17.134;2022-11-20T08:54:11;49.80;;;30.97;;
12407;SDS011;6268;48.188;17.134;2022-11-20T08:56:40;55.13;;;31.07;;
12407;SDS011;6268;48.188;17.134;2022-11-20T08:59:08;57.70;;;34.50;;
12407;SDS011;6268;48.188;17.134;2022-11-20T09:01:57;58.77;;;35.07;;
12407;SDS011;6268;48.188;17.134;2022-11-20T09:04:26;52.00;;;31.50;;
12407;SDS011;6268;48.188;17.134;2022-11-20T09:06:54;54.97;;;33.63;;
12407;SDS011;6268;48.188;17.134;2022-11-20T09:09:25;57.80;;;34.70;;
12407;SDS011;6268;48.188;17.134;2022-11-20T09:11:53;55.97;;;32.00;;
12407;SDS011;6268;48.188;17.134;2022-11-20T09:14:22;54.10;;;33.67;;
12407;SDS011;6268;48.188;17.134;2022-11-20T09:16:56;55.53;;;33.37;;
12407;SDS011;6268;48.188;17.134;2022-11-20T09:19:25;51.40;;;31.97;;
12407;SDS011;6268;48.188;17.134;2022-11-20T09:22:01;53.60;;;32.57;;
12407;SDS011;6268;48.188;17.134;2022-11-20T09:24:31;47.90;;;28.73;;
12407;SDS011;6268;48.188;17.134;2022-11-20T09:27:01;42.80;;;28.33;;
12407;SDS011;6268;48.188;17.134;2022-11-20T09:29:31;43.10;;;27.10;;
12407;SDS011;6268;48.188;17.134;2022-11-20T09:32:00;41.70;;;27.87;;
12407;SDS011;6268;48.188;17.134;2022-11-20T09:34:29;38.87;;;27.33;;
12407;SDS011;6268;48.188;17.134;2022-11-20T09:36:57;43.53;;;28.00;;
12407;SDS011;6268;48.188;17.134;2022-11-20T09:39:33;44.20;;;29.17;;
12407;SDS011;6268;48.188;17.134;2022-11-20T09:42:09;45.90;;;30.10;;
12407;SDS011;6268;48.188;17.134;2022-11-20T09:45:10;44.60;;;29.73;;
12407;SDS011;6268;48.188;17.134;2022-11-20T09:48:04;43.63;;;29.27;;
12407;SDS011;6268;48.188;17.134;2022-11-20T09:51:00;42.03;;;27.57;;
12407;SDS011;6268;48.188;17.134;2022-11-20T09:53:46;40.03;;;28.40;;
12407;SDS011;6268;48.188;17.134;2022-11-20T09:56:35;40.90;;;28.73;;
12407;SDS011;6268;48.188;17.134;2022-11-20T09:59:12;40.97;;;28.37;;
12407;SDS011;6268;48.188;17.134;2022-11-20T10:01:56;41.17;;;27.77;;
12407;SDS011;6268;48.188;17.134;2022-11-20T10:04:28;40.83;;;28.50;;
12407;SDS011;6268;48.188;17.134;2022-11-20T10:07:06;43.73;;;29.40;;
12407;SDS011;6268;48.188;17.134;2022-11-20T10:10:00;41.67;;;29.83;;
12407;SDS011;6268;48.188;17.134;2022-11-20T10:12:33;43.47;;;31.17;;
12407;SDS011;6268;48.188;17.134;2022-11-20T10:15:25;44.03;;;30.70;;
12407;SDS011;6268;48.188;17.134;2022-11-20T10:18:04;49.23;;;32.60;;
12407;SDS011;6268;48.188;17.134;2022-11-20T10:20:49;44.40;;;30.73;;
12407;SDS011;6268;48.188;17.134;2022-11-20T10:23:36;49.27;;;32.73;;
12407;SDS011;6268;48.188;17.134;2022-11-20T10:26:26;44.60;;;30.97;;
12407;SDS011;6268;48.188;17.134;2022-11-20T10:29:12;45.90;;;32.07;;
12407;SDS011;6268;48.188;17.134;2022-11-20T10:31:45;45.43;;;31.37;;
12407;SDS011;6268;48.188;17.134;2022-11-20T10:34:23;53.73;;;34.80;;
12407;SDS011;6268;48.188;17.134;2022-11-20T10:36:58;60.30;;;40.90;;
12407;SDS011;6268;48.188;17.134;2022-11-20T10:39:33;52.67;;;34.60;;
12407;SDS011;6268;48.188;17.134;2022-11-20T10:42:11;44.67;;;29.00;;
12407;SDS011;6268;48.188;17.134;2022-11-20T10:44:50;38.87;;;28.27;;
12407;SDS011;6268;48.188;17.134;2022-11-20T10:47:32;45.37;;;31.40;;
12407;SDS011;6268;48.188;17.134;2022-11-20T10:50:04;41.93;;;29.07;;
12407;SDS011;6268;48.188;17.134;2022-11-20T10:52:50;44.00;;;31.13;;
12407;SDS011;6268;48.188;17.134;2022-11-20T10:55:30;45.10;;;28.33;;
12407;SDS011;6268;48.188;17.134;2022-11-20T10:58:14;40.03;;;28.53;;
12407;SDS011;6268;48.188;17.134;2022-11-20T11:01:03;35.07;;;24.87;;
12407;SDS011;6268;48.188;17.134;2022-11-20T11:03:33;33.80;;;23.77;;
12407;SDS011;6268;48.188;17.134;2022-11-20T11:06:03;34.03;;;23.60;;
12407;SDS011;6268;48.188;17.134;2022-11-20T11:08:43;31.93;;;23.27;;
12407;SDS011;6268;48.188;17.134;2022-11-20T11:11:20;32.60;;;22.67;;
12407;SDS011;6268;48.188;17.134;2022-11-20T11:13:51;33.00;;;24.07;;
12407;SDS011;6268;48.188;17.134;2022-11-20T11:16:22;30.77;;;23.70;;
12407;SDS011;6268;48.188;17.134;2022-11-20T11:19:02;34.17;;;24.43;;
12407;SDS011;6268;48.188;17.134;2022-11-20T11:21:33;31.43;;;23.37;;
12407;SDS011;6268;48.188;17.134;2022-11-20T11:24:03;35.13;;;24.17;;
12407;SDS011;6268;48.188;17.134;2022-11-20T11:26:53;35.50;;;23.70;;
12407;SDS011;6268;48.188;17.134;2022-11-20T11:29:26;31.47;;;22.70;;
12407;SDS011;6268;48.188;17.134;2022-11-20T11:32:05;31.07;;;23.20;;
12407;SDS011;6268;48.188;17.134;2022-11-20T11:34:39;32.13;;;23.27;;
12407;SDS011;6268;48.188;17.134;2022-11-20T11:37:10;33.20;;;23.47;;
12407;SDS011;6268;48.188;17.134;2022-11-20T11:39:48;31.13;;;23.43;;
12407;SDS011;6268;48.188;17.134;2022-11-20T11:42:40;31.97;;;22.47;;
12407;SDS011;6268;48.188;17.134;2022-11-20T11:45:11;30.88;;;22.50;;
12407;SDS011;6268;48.188;17.134;2022-11-20T11:47:45;33.60;;;23.23;;
12407;SDS011;6268;48.188;17.134;2022-11-20T11:50:17;31.67;;;23.47;;
12407;SDS011;6268;48.188;17.134;2022-11-20T11:52:53;41.77;;;28.90;;
12407;SDS011;6268;48.188;17.134;2022-11-20T11:55:40;40.90;;;28.63;;
12407;SDS011;6268;48.188;17.134;2022-11-20T11:58:15;48.83;;;33.50;;
12407;SDS011;6268;48.188;17.134;2022-11-20T12:01:01;87.50;;;58.13;;
12407;SDS011;6268;48.188;17.134;2022-11-20T12:03:42;52.10;;;35.87;;
12407;SDS011;6268;48.188;17.134;2022-11-20T12:06:23;44.73;;;32.40;;
12407;SDS011;6268;48.188;17.134;2022-11-20T12:08:57;43.73;;;30.53;;
12407;SDS011;6268;48.188;17.134;2022-11-20T12:11:31;38.87;;;28.70;;
12407;SDS011;6268;48.188;17.134;2022-11-20T12:14:09;41.53;;;29.97;;
12407;SDS011;6268;48.188;17.134;2022-11-20T12:16:46;43.08;;;29.70;;
12407;SDS011;6268;48.188;17.134;2022-11-20T12:19:16;41.97;;;30.53;;
12407;SDS011;6268;48.188;17.134;2022-11-20T12:21:48;41.77;;;28.97;;
12407;SDS011;6268;48.188;17.134;2022-11-20T12:24:33;42.80;;;30.47;;
12407;SDS011;6268;48.188;17.134;2022-11-20T12:27:21;42.50;;;30.05;;
12407;SDS011;6268;48.188;17.134;2022-11-20T12:30:31;51.30;;;34.73;;
12407;SDS011;6268;48.188;17.134;2022-11-20T12:33:15;46.45;;;31.30;;
12407;SDS011;6268;48.188;17.134;2022-11-20T12:36:32;43.83;;;30.48;;
12407;SDS011;6268;48.188;17.134;2022-11-20T12:42:34;45.17;;;30.53;;
12407;SDS011;6268;48.188;17.134;2022-11-20T12:45:52;45.57;;;30.57;;
12407;SDS011;6268;48.188;17.134;2022-11-20T12:51:42;38.88;;;28.77;;
12407;SDS011;6268;48.188;17.134;2022-11-20T12:54:54;43.97;;;30.20;;
12407;SDS011;6268;48.188;17.134;2022-11-20T12:57:43;50.27;;;34.17;;
12407;SDS011;6268;48.188;17.134;2022-11-20T13:00:21;60.90;;;40.47;;
12407;SDS011;6268;48.188;17.134;2022-11-20T13:06:00;44.00;;;32.90;;
12407;SDS011;6268;48.188;17.134;2022-11-20T13:08:43;44.30;;;30.00;;
12407;SDS011;6268;48.188;17.134;2022-11-20T13:11:21;42.83;;;29.27;;
12407;SDS011;6268;48.188;17.134;2022-11-20T13:14:11;47.03;;;33.10;;
12407;SDS011;6268;48.188;17.134;2022-11-20T13:16:55;39.43;;;29.13;;
12407;SDS011;6268;48.188;17.134;2022-11-20T13:19:32;38.40;;;28.10;;
12407;SDS011;6268;48.188;17.134;2022-11-20T13:22:01;38.60;;;28.43;;
12407;SDS011;6268;48.188;17.134;2022-11-20T13:24:32;40.43;;;27.67;;
12407;SDS011;6268;48.188;17.134;2022-11-20T13:27:05;39.57;;;29.87;;
12407;SDS011;6268;48.188;17.134;2022-11-20T13:29:58;42.40;;;31.03;;
12407;SDS011;6268;48.188;17.134;2022-11-20T13:32:47;40.65;;;29.88;;
12407;SDS011;6268;48.188;17.134;2022-11-20T13:35:25;40.10;;;29.73;;
12407;SDS011;6268;48.188;17.134;2022-11-20T13:38:05;37.63;;;28.83;;
12407;SDS011;6268;48.188;17.134;2022-11-20T13:40:38;39.30;;;28.37;;
12407;SDS011;6268;48.188;17.134;2022-11-20T13:43:22;37.67;;;28.77;;
12407;SDS011;6268;48.188;17.134;2022-11-20T13:46:02;49.13;;;37.23;;
12407;SDS011;6268;48.188;17.134;2022-11-20T13:48:34;46.13;;;33.20;;
12407;SDS011;6268;48.188;17.134;2022-11-20T13:51:13;40.13;;;29.73;;
12407;SDS011;6268;48.188;17.134;2022-11-20T13:54:04;37.23;;;26.93;;
12407;SDS011;6268;48.188;17.134;2022-11-20T13:57:05;39.23;;;28.93;;
12407;SDS011;6268;48.188;17.134;2022-11-20T13:59:56;44.33;;;31.90;;
12407;SDS011;6268;48.188;17.134;2022-11-20T14:02:33;36.97;;;27.70;;
12407;SDS011;6268;48.188;17.134;2022-11-20T14:05:02;34.47;;;26.85;;
12407;SDS011;6268;48.188;17.134;2022-11-20T14:07:34;36.10;;;27.70;;
12407;SDS011;6268;48.188;17.134;2022-11-20T14:10:18;36.27;;;27.50;;
12407;SDS011;6268;48.188;17.134;2022-11-20T14:12:58;36.07;;;27.47;;
12407;SDS011;6268;48.188;17.134;2022-11-20T14:15:38;40.15;;;30.52;;
12407;SDS011;6268;48.188;17.134;2022-11-20T14:18:11;42.05;;;30.70;;
12407;SDS011;6268;48.188;17.134;2022-11-20T14:20:43;39.63;;;30.47;;
12407;SDS011;6268;48.188;17.134;2022-11-20T14:23:12;39.13;;;28.95;;
12407;SDS011;6268;48.188;17.134;2022-11-20T14:25:55;37.15;;;27.00;;
12407;SDS011;6268;48.188;17.134;2022-11-20T14:28:27;68.22;;;48.47;;
12407;SDS011;6268;48.188;17.134;2022-11-20T14:30:57;64.20;;;43.67;;
12407;SDS011;6268;48.188;17.134;2022-11-20T14:33:26;60.00;;;43.88;;
12407;SDS011;6268;48.188;17.134;2022-11-20T14:35:56;54.97;;;39.93;;
12407;SDS011;6268;48.188;17.134;2022-11-20T14:38:27;50.75;;;37.28;;
12407;SDS011;6268;48.188;17.134;2022-11-20T14:41:05;58.55;;;42.92;;
12407;SDS011;6268;48.188;17.134;2022-11-20T14:43:36;52.50;;;38.10;;
12407;SDS011;6268;48.188;17.134;2022-11-20T14:46:07;42.37;;;30.50;;
12407;SDS011;6268;48.188;17.134;2022-11-20T14:48:38;41.73;;;31.60;;
12407;SDS011;6268;48.188;17.134;2022-11-20T14:51:12;37.33;;;28.13;;
12407;SDS011;6268;48.188;17.134;2022-11-20T14:53:56;38.30;;;28.23;;
12407;SDS011;6268;48.188;17.134;2022-11-20T14:56:35;38.77;;;28.57;;
12407;SDS011;6268;48.188;17.134;2022-11-20T14:59:06;40.40;;;30.17;;
12407;SDS011;6268;48.188;17.134;2022-11-20T15:01:36;40.58;;;30.05;;
12407;SDS011;6268;48.188;17.134;2022-11-20T15:04:05;40.65;;;30.92;;
12407;SDS011;6268;48.188;17.134;2022-11-20T15:06:48;39.95;;;30.52;;
12407;SDS011;6268;48.188;17.134;2022-11-20T15:09:18;39.87;;;29.27;;